Time;durP1;ratioP1;P1;durP2;ratioP2;P2;SDS_P1;SDS_P2;PMS_P1;PMS_P2;Temp;Humidity;BMP_temperature;BMP_pressure;BME280_temperature;BME280_humidity;BME280_pressure;Samples;Min_cycle;Max_cycle;Signal;HPM_P1;HPM_P2
2023/03/21 00:01:32;;;;;;;31.88;14.65;;;;;;;11.14;100.00;97224.22;5049884;28;20582;-83
2023/03/21 00:03:57;;;;;;;39.22;15.90;;;;;;;11.16;100.00;97222.31;5033370;28;20123;-82
2023/03/21 00:06:23;;;;;;;36.38;16.27;;;;;;;11.17;100.00;97223.13;5033346;28;20052;-82
2023/03/21 00:08:48;;;;;;;30.05;16.02;;;;;;;11.05;100.00;97222.16;5050142;28;20492;-80
2023/03/21 00:11:14;;;;;;;30.85;15.15;;;;;;;11.12;100.00;97228.81;5049828;28;20036;-80
2023/03/21 00:13:43;;;;;;;29.05;15.13;;;;;;;10.97;100.00;97221.84;5066657;28;20036;-81
2023/03/21 00:16:14;;;;;;;34.53;15.45;;;;;;;10.99;100.00;97225.25;5033489;28;20512;-82
2023/03/21 00:18:45;;;;;;;31.10;14.52;;;;;;;10.89;100.00;97232.19;5049955;28;20033;-81
2023/03/21 00:21:14;;;;;;;36.35;16.33;;;;;;;10.77;100.00;97236.56;5033519;28;20039;-81
2023/03/21 00:23:40;;;;;;;49.08;17.88;;;;;;;10.73;100.00;97221.72;5049257;28;20520;-81
2023/03/21 00:26:08;;;;;;;35.55;17.30;;;;;;;10.79;100.00;97228.47;5032912;28;20029;-80
2023/03/21 00:28:36;;;;;;;35.67;17.35;;;;;;;10.83;100.00;97225.47;5049335;28;20029;-81
2023/03/21 00:31:01;;;;;;;39.65;17.55;;;;;;;10.73;100.00;97218.19;5049482;28;20032;-80
2023/03/21 00:33:27;;;;;;;35.22;16.38;;;;;;;10.80;100.00;97214.97;5032883;28;20439;-81
2023/03/21 00:35:53;;;;;;;34.10;17.02;;;;;;;10.78;100.00;97211.53;5049407;28;20021;-81
2023/03/21 00:38:20;;;;;;;36.42;17.52;;;;;;;10.87;100.00;97215.41;5049442;28;20408;-81
2023/03/21 00:40:46;;;;;;;52.00;20.27;;;;;;;10.85;100.00;97204.81;5032750;28;20032;-82
2023/03/21 00:43:13;;;;;;;41.30;18.48;;;;;;;10.88;100.00;97217.13;5032692;28;20086;-81
2023/03/21 00:45:38;;;;;;;33.72;18.00;;;;;;;10.92;100.00;97212.44;5049427;28;20490;-82
2023/03/21 00:48:04;;;;;;;39.97;18.10;;;;;;;10.84;100.00;97215.63;5049345;28;20025;-82
2023/03/21 00:50:31;;;;;;;36.20;17.95;;;;;;;10.89;100.00;97230.38;5032674;28;20021;-80
2023/03/21 00:52:57;;;;;;;35.97;17.42;;;;;;;10.87;100.00;97220.75;5032466;28;20421;-81
2023/03/21 00:55:23;;;;;;;38.85;17.35;;;;;;;10.98;100.00;97228.94;5048770;28;20024;-82
2023/03/21 00:57:48;;;;;;;39.60;18.65;;;;;;;10.97;100.00;97221.84;5049284;28;20025;-82
2023/03/21 01:00:14;;;;;;;34.50;17.65;;;;;;;11.02;100.00;97218.84;5049600;28;20032;-80
2023/03/21 01:02:55;;;;;;;35.40;18.25;;;;;;;11.05;100.00;97223.97;5052773;28;20507;-82
2023/03/21 01:06:01;;;;;;;39.25;18.02;;;;;;;10.96;100.00;97222.81;5053153;28;20163;-82
2023/03/21 01:08:17;;;;;;;34.80;18.17;;;;;;;10.92;100.00;97223.13;5052489;28;20119;-82
2023/03/21 01:10:45;;;;;;;42.35;20.05;;;;;;;10.95;100.00;97213.06;5052516;28;20488;-81
2023/03/21 01:13:12;;;;;;;47.28;20.40;;;;;;;10.98;100.00;97223.56;5036266;28;20017;-82
2023/03/21 01:15:46;;;;;;;35.05;18.13;;;;;;;10.91;100.00;97224.94;5035910;28;20032;-83
2023/03/21 01:18:13;;;;;;;41.25;18.33;;;;;;;10.88;100.00;97233.19;5052603;28;20032;-82
2023/03/21 01:20:42;;;;;;;38.47;17.40;;;;;;;10.94;100.00;97229.22;5035741;28;20495;-81
2023/03/21 01:23:09;;;;;;;33.45;16.25;;;;;;;10.82;100.00;97233.59;5052545;28;20031;-81
2023/03/21 01:25:34;;;;;;;43.17;17.35;;;;;;;10.82;100.00;97239.81;5035233;28;20041;-81
2023/03/21 01:28:00;;;;;;;29.83;15.00;;;;;;;10.76;100.00;97244.72;5069081;28;20040;-82
2023/03/21 01:30:26;;;;;;;29.45;14.82;;;;;;;10.64;100.00;97249.06;5052267;28;20491;-81
2023/03/21 01:32:51;;;;;;;34.00;15.60;;;;;;;10.70;100.00;97254.03;5052447;28;20047;-82
2023/03/21 01:35:17;;;;;;;47.55;22.10;;;;;;;10.53;100.00;97248.06;5052374;28;20064;-82
2023/03/21 01:37:42;;;;;;;43.33;19.90;;;;;;;10.43;100.00;97247.81;5035879;28;20028;-81
2023/03/21 01:40:11;;;;;;;38.95;17.90;;;;;;;10.38;100.00;97265.13;5051969;28;20028;-81
2023/03/21 01:42:38;;;;;;;43.25;19.08;;;;;;;10.20;100.00;97260.03;5068854;28;20033;-80
2023/03/21 01:45:26;;;;;;;38.05;18.60;;;;;;;10.04;100.00;97255.72;5051983;28;20033;-82
2023/03/21 01:47:51;;;;;;;38.13;17.92;;;;;;;10.12;100.00;97267.63;5068516;28;20115;-82
2023/03/21 01:50:20;;;;;;;32.35;16.65;;;;;;;10.02;100.00;97255.84;5052216;28;20223;-82
2023/03/21 01:52:48;;;;;;;29.17;15.90;;;;;;;10.03;100.00;97260.22;5051931;28;20032;-82
2023/03/21 01:55:15;;;;;;;30.60;15.18;;;;;;;10.05;100.00;97246.78;5048352;28;20424;-82
2023/03/21 01:57:47;;;;;;;33.45;15.70;;;;;;;10.04;100.00;97248.59;5052056;28;20078;-82
2023/03/21 02:00:14;;;;;;;28.38;14.23;;;;;;;10.02;100.00;97244.31;5051902;28;20028;-81
2023/03/21 02:02:54;;;;;;;28.48;13.23;;;;;;;9.83;100.00;97236.59;5035369;28;20551;-81
2023/03/21 02:05:41;;;;;;;24.38;12.40;;;;;;;9.80;100.00;97240.34;5037155;28;20040;-82
2023/03/21 02:08:07;;;;;;;26.85;13.27;;;;;;;9.76;100.00;97244.16;5035165;28;20368;-80
2023/03/21 02:10:32;;;;;;;24.63;13.52;;;;;;;9.81;100.00;97243.88;5034686;28;20040;-82
2023/03/21 02:13:08;;;;;;;28.75;13.50;;;;;;;9.86;100.00;97247.09;5034459;28;20028;-81
2023/03/21 02:15:35;;;;;;;27.17;13.18;;;;;;;9.94;100.00;97246.59;5051311;28;20504;-80
2023/03/21 02:18:07;;;;;;;26.83;13.45;;;;;;;10.00;100.00;97248.88;5051140;28;20103;-81
2023/03/21 02:21:11;;;;;;;31.52;12.80;;;;;;;10.10;100.00;97247.31;5051416;28;20039;-81
2023/03/21 02:24:01;;;;;;;27.80;13.20;;;;;;;10.18;100.00;97245.88;5030208;28;20053;-81
2023/03/21 02:26:58;;;;;;;28.77;14.60;;;;;;;10.24;100.00;97250.00;5038730;28;20041;-82
2023/03/21 02:29:55;;;;;;;27.98;14.32;;;;;;;10.37;100.00;97250.06;5044936;28;20032;-81
2023/03/21 02:32:50;;;;;;;24.40;11.95;;;;;;;10.59;100.00;97237.81;5044066;28;20033;-82
2023/03/21 02:35:19;;;;;;;31.48;14.30;;;;;;;10.58;100.00;97245.97;5061491;28;20025;-81
2023/03/21 02:37:48;;;;;;;32.38;13.95;;;;;;;10.51;100.00;97244.66;5050983;28;20412;-80
2023/03/21 02:40:25;;;;;;;27.50;13.52;;;;;;;10.60;100.00;97250.25;5050938;28;20413;-80
2023/03/21 02:43:06;;;;;;;28.90;15.25;;;;;;;10.66;100.00;97241.81;5067606;28;20033;-80
2023/03/21 02:45:44;;;;;;;27.63;13.68;;;;;;;10.62;100.00;97242.97;5052676;28;20509;-82
2023/03/21 02:48:14;;;;;;;29.92;14.02;;;;;;;10.61;100.00;97241.22;5034415;28;20025;-82
2023/03/21 02:50:44;;;;;;;30.67;15.80;;;;;;;10.60;100.00;97230.66;5034449;28;20521;-82
2023/03/21 02:53:11;;;;;;;28.52;13.70;;;;;;;10.59;100.00;97243.16;5050843;28;20040;-81
2023/03/21 02:55:41;;;;;;;32.15;14.07;;;;;;;10.58;100.00;97240.59;5068079;28;20469;-80
2023/03/21 02:58:09;;;;;;;28.63;14.93;;;;;;;10.41;100.00;97238.19;5051101;28;20029;-81
2023/03/21 03:00:35;;;;;;;33.60;14.90;;;;;;;10.32;100.00;97245.88;5067871;28;20048;-82
2023/03/21 03:03:02;;;;;;;35.50;14.77;;;;;;;10.22;100.00;97244.75;5034378;28;20112;-80
2023/03/21 03:05:30;;;;;;;40.65;17.23;;;;;;;10.18;100.00;97243.22;5034223;28;20033;-81
2023/03/21 03:07:59;;;;;;;42.83;20.60;;;;;;;10.16;100.00;97254.97;5034093;28;20037;-81
2023/03/21 03:10:30;;;;;;;42.05;21.05;;;;;;;10.11;100.00;97252.59;5037338;28;20028;-82
2023/03/21 03:13:20;;;;;;;42.20;18.88;;;;;;;10.06;100.00;97254.66;5050494;28;20039;-81
2023/03/21 03:16:01;;;;;;;32.30;17.05;;;;;;;9.96;100.00;97256.25;5048426;28;20496;-81
2023/03/21 03:18:33;;;;;;;39.60;18.52;;;;;;;9.91;100.00;97261.00;5050738;28;20481;-85
2023/03/21 03:21:09;;;;;;;45.22;19.35;;;;;;;9.85;100.00;97261.41;5050704;28;20083;-80
2023/03/21 03:23:42;;;;;;;40.40;17.58;;;;;;;9.80;100.00;97252.81;5049499;28;20484;-81
2023/03/21 03:26:39;;;;;;;32.97;16.15;;;;;;;9.86;100.00;97257.78;5050497;28;20113;-79
2023/03/21 03:29:11;;;;;;;45.78;18.23;;;;;;;9.80;100.00;97250.16;5058084;28;20041;-79
2023/03/21 03:31:40;;;;;;;39.78;18.65;;;;;;;9.71;100.00;97250.75;5050672;28;20029;-81
2023/03/21 03:34:31;;;;;;;40.20;18.48;;;;;;;9.72;100.00;97258.63;5050486;28;20512;-82
2023/03/21 03:36:58;;;;;;;35.55;16.85;;;;;;;9.64;100.00;97257.41;5050077;28;20495;-81
2023/03/21 03:39:33;;;;;;;38.78;18.15;;;;;;;9.53;100.00;97238.56;5050577;28;20480;-81
2023/03/21 03:42:21;;;;;;;35.67;18.45;;;;;;;9.52;100.00;97255.50;5050257;28;20025;-82
2023/03/21 03:44:46;;;;;;;35.83;17.10;;;;;;;9.55;100.00;97250.84;5050553;28;20119;-81
2023/03/21 03:47:21;;;;;;;37.28;17.20;;;;;;;9.63;100.00;97256.56;5050674;28;20112;-81
2023/03/21 03:49:51;;;;;;;39.85;20.77;;;;;;;9.59;100.00;97252.38;5050386;28;20024;-82
2023/03/21 03:52:30;;;;;;;52.47;22.25;;;;;;;9.52;100.00;97253.72;5033858;28;20029;-81
2023/03/21 03:54:56;;;;;;;41.28;20.38;;;;;;;9.36;100.00;97257.41;5049857;28;20058;-80
2023/03/21 03:57:24;;;;;;;43.25;20.00;;;;;;;9.40;100.00;97256.28;5032964;28;20016;-82
2023/03/21 03:59:50;;;;;;;40.42;20.73;;;;;;;9.33;100.00;97262.94;5049522;28;20029;-80
2023/03/21 04:02:16;;;;;;;41.97;20.60;;;;;;;9.25;100.00;97252.75;5033346;28;20040;-80
2023/03/21 04:04:41;;;;;;;39.67;19.02;;;;;;;9.26;100.00;97265.97;5033555;28;20491;-81
2023/03/21 04:07:07;;;;;;;36.95;18.00;;;;;;;9.16;100.00;97258.66;5050190;28;20025;-82
2023/03/21 04:09:33;;;;;;;39.70;19.08;;;;;;;9.04;100.00;97262.94;5050204;28;20074;-81
2023/03/21 04:11:59;;;;;;;40.13;18.23;;;;;;;9.00;100.00;97255.19;5050035;28;20029;-82
2023/03/21 04:14:25;;;;;;;35.97;16.90;;;;;;;9.05;100.00;97267.28;5050359;28;20035;-82
2023/03/21 04:16:51;;;;;;;47.78;21.77;;;;;;;8.92;100.00;97273.47;5050311;28;20021;-81
2023/03/21 04:19:17;;;;;;;63.45;26.75;;;;;;;8.95;100.00;97273.28;5050215;28;20078;-82
2023/03/21 04:21:45;;;;;;;52.95;25.85;;;;;;;8.85;100.00;97275.66;5066420;28;20029;-82
2023/03/21 04:24:12;;;;;;;46.58;22.60;;;;;;;8.76;100.00;97286.84;5049581;28;20053;-81
2023/03/21 04:26:39;;;;;;;60.22;23.38;;;;;;;8.67;100.00;97280.22;5049981;28;20515;-81
2023/03/21 04:29:04;;;;;;;71.90;26.73;;;;;;;8.71;100.00;97275.59;5033041;28;20400;-82
2023/03/21 04:31:32;;;;;;;50.55;21.67;;;;;;;8.53;100.00;97290.00;5049641;28;20033;-82
2023/03/21 04:34:01;;;;;;;46.47;21.33;;;;;;;8.55;100.00;97296.13;5049978;28;20048;-80
2023/03/21 04:36:29;;;;;;;55.03;24.92;;;;;;;8.67;100.00;97290.91;5053503;28;20017;-81
2023/03/21 04:38:59;;;;;;;74.00;27.77;;;;;;;8.57;100.00;97300.41;5037032;28;20489;-80
2023/03/21 04:41:26;;;;;;;114.38;43.60;;;;;;;8.54;100.00;97310.38;5070046;28;20024;-81
2023/03/21 04:43:52;;;;;;;75.32;29.52;;;;;;;8.57;100.00;97295.06;5053296;28;20028;-81
2023/03/21 04:46:17;;;;;;;64.78;28.27;;;;;;;8.64;100.00;97304.41;5052910;28;20032;-81
2023/03/21 04:48:43;;;;;;;94.15;35.90;;;;;;;8.60;100.00;97296.69;5053297;28;20107;-80
2023/03/21 04:51:08;;;;;;;62.20;26.17;;;;;;;8.64;100.00;97304.41;5036153;28;20416;-78
2023/03/21 04:53:34;;;;;;;55.70;25.38;;;;;;;8.62;100.00;97294.78;5036037;28;20029;-78
2023/03/21 04:56:00;;;;;;;48.78;21.60;;;;;;;8.79;100.00;97307.16;5069288;28;20103;-78
2023/03/21 04:58:26;;;;;;;47.50;21.38;;;;;;;8.75;100.00;97302.94;5052590;28;20028;-79
2023/03/21 05:00:51;;;;;;;142.88;55.13;;;;;;;8.73;100.00;97288.84;5052972;28;20094;-81
2023/03/21 05:03:20;;;;;;;108.60;45.90;;;;;;;8.78;100.00;97286.75;5052840;28;20488;-81
2023/03/21 05:05:46;;;;;;;112.07;47.20;;;;;;;8.93;100.00;97285.84;5023034;28;20486;-81
2023/03/21 05:08:13;;;;;;;106.65;49.00;;;;;;;9.20;100.00;97300.19;5052600;28;20412;-80
2023/03/21 05:10:38;;;;;;;91.07;39.78;;;;;;;9.38;100.00;97303.56;5052806;28;20029;-78
2023/03/21 05:13:04;;;;;;;81.68;33.50;;;;;;;9.50;100.00;97298.34;5036118;28;20087;-79
2023/03/21 05:15:29;;;;;;;66.57;22.75;;;;;;;9.48;100.00;97299.38;5053153;28;20483;-79
2023/03/21 05:17:57;;;;;;;51.40;20.63;;;;;;;9.62;100.00;97313.59;5036444;28;20514;-79
2023/03/21 05:20:23;;;;;;;49.30;19.00;;;;;;;9.91;100.00;97302.88;5053008;28;20063;-82
2023/03/21 05:22:50;;;;;;;49.30;16.42;;;;;;;10.14;100.00;97297.84;5053173;28;20111;-81
2023/03/21 05:25:19;;;;;;;46.55;17.63;;;;;;;10.00;100.00;97278.25;5052958;28;20136;-88
2023/03/21 05:27:52;;;;;;;36.95;15.70;;;;;;;9.87;100.00;97288.03;5053444;28;20045;-82
2023/03/21 05:30:19;;;;;;;39.33;17.40;;;;;;;9.95;100.00;97294.59;5037278;28;20031;-81
2023/03/21 05:32:45;;;;;;;44.38;18.13;;;;;;;10.15;100.00;97288.84;5054004;28;20119;-81
2023/03/21 05:35:10;;;;;;;37.85;17.17;;;;;;;10.59;100.00;97295.78;5054776;28;20059;-83
2023/03/21 05:37:37;;;;;;;46.70;17.52;;;;;;;10.85;100.00;97289.59;5057191;28;20033;-83
2023/03/21 05:40:05;;;;;;;43.30;18.25;;;;;;;10.77;100.00;97283.88;5037903;28;20091;-82
2023/03/21 05:42:31;;;;;;;35.17;17.55;;;;;;;10.67;100.00;97283.66;5053162;28;20052;-80
2023/03/21 05:44:56;;;;;;;31.08;16.98;;;;;;;10.59;100.00;97280.59;5036125;28;20025;-81
2023/03/21 05:47:22;;;;;;;49.15;19.02;;;;;;;10.80;100.00;97278.31;5051648;28;20032;-84
2023/03/21 05:49:48;;;;;;;33.58;16.02;;;;;;;10.97;100.00;97280.72;5052969;28;20080;-83
2023/03/21 05:52:14;;;;;;;45.70;18.80;;;;;;;11.13;100.00;97270.69;5037049;28;20417;-82
2023/03/21 05:54:40;;;;;;;50.15;23.48;;;;;;;11.18;100.00;97263.19;5053129;28;20102;-82
2023/03/21 05:57:06;;;;;;;55.00;24.65;;;;;;;11.14;100.00;97271.53;5052509;28;20036;-81
2023/03/21 05:59:31;;;;;;;74.30;28.90;;;;;;;11.24;100.00;97264.59;5052716;28;20102;-80
2023/03/21 06:01:57;;;;;;;77.95;30.85;;;;;;;11.42;100.00;97255.28;5035699;28;20036;-79
2023/03/21 06:04:23;;;;;;;64.18;27.98;;;;;;;11.62;100.00;97254.75;5036426;28;20037;-80
2023/03/21 06:06:49;;;;;;;55.25;23.95;;;;;;;11.74;100.00;97253.03;5035980;28;20029;-81
2023/03/21 06:09:15;;;;;;;53.55;23.75;;;;;;;11.98;100.00;97245.91;5052807;28;20481;-80
2023/03/21 06:11:44;;;;;;;44.63;21.02;;;;;;;12.23;98.82;97236.94;5051912;28;20029;-79
2023/03/21 06:14:10;;;;;;;51.35;22.10;;;;;;;12.59;95.97;97234.19;5052064;28;20036;-80
2023/03/21 06:16:35;;;;;;;52.15;21.27;;;;;;;12.42;99.19;97245.34;5051926;28;20048;-79
2023/03/21 06:19:01;;;;;;;49.05;22.33;;;;;;;12.35;98.66;97234.22;5035421;28;20112;-80
2023/03/21 06:21:26;;;;;;;47.90;19.25;;;;;;;12.30;97.92;97232.84;5058313;28;20111;-83
2023/03/21 06:23:52;;;;;;;41.90;19.30;;;;;;;12.61;97.14;97228.75;5061768;28;20045;-83
2023/03/21 06:26:21;;;;;;;48.67;20.42;;;;;;;12.95;94.43;97230.59;5055366;28;20023;-80
2023/03/21 06:28:48;;;;;;;42.22;16.23;;;;;;;13.23;89.06;97211.38;5051536;28;20044;-80
2023/03/21 06:31:14;;;;;;;32.72;17.40;;;;;;;13.49;90.37;97220.94;5051957;28;20021;-80
2023/03/21 06:37:02;;;;;;;35.92;17.40;;;;;;;14.16;83.39;97215.53;5053180;28;20189;-80
2023/03/21 06:39:30;;;;;;;47.67;20.80;;;;;;;14.39;80.60;97214.53;5035302;28;20029;-79
2023/03/21 06:41:56;;;;;;;44.00;21.05;;;;;;;14.66;77.84;97203.31;5051646;28;20352;-81
2023/03/21 06:44:23;;;;;;;42.25;20.67;;;;;;;14.47;75.83;97187.84;5051329;28;20557;-80
2023/03/21 06:46:49;;;;;;;39.88;19.30;;;;;;;14.54;74.26;97189.03;5051762;28;20021;-78
2023/03/21 06:49:14;;;;;;;46.88;22.67;;;;;;;14.83;73.19;97183.03;5034847;28;20025;-80
2023/03/21 06:51:40;;;;;;;45.05;23.75;;;;;;;14.60;75.07;97172.38;5035222;28;20519;-80
2023/03/21 06:54:05;;;;;;;49.22;23.30;;;;;;;14.76;73.57;97188.09;5068162;28;20067;-79
2023/03/21 06:56:31;;;;;;;45.97;26.10;;;;;;;14.81;73.50;97180.47;5034919;28;20048;-79
2023/03/21 06:58:57;;;;;;;64.50;25.48;;;;;;;14.90;72.38;97181.53;5051449;28;20083;-79
2023/03/21 07:01:23;;;;;;;98.70;48.97;;;;;;;14.88;73.12;97188.91;5035115;28;20086;-79
2023/03/21 07:03:49;;;;;;;63.08;34.78;;;;;;;15.29;68.45;97177.28;5051487;28;20027;-79
2023/03/21 07:06:15;;;;;;;41.45;20.05;;;;;;;15.47;65.54;97168.44;5050820;28;20104;-78
2023/03/21 07:08:41;;;;;;;45.80;23.35;;;;;;;15.79;63.66;97167.44;5051243;28;20079;-80
2023/03/21 07:11:25;;;;;;;35.97;18.77;;;;;;;16.02;62.02;97174.34;5052071;28;20499;-80
2023/03/21 07:13:51;;;;;;;46.38;25.13;;;;;;;15.68;62.62;97160.31;5052472;28;20028;-81
2023/03/21 07:16:18;;;;;;;35.65;18.30;;;;;;;15.43;62.65;97169.69;5051013;28;20025;-80
2023/03/21 07:18:43;;;;;;;33.85;18.65;;;;;;;15.37;63.88;97174.75;5034258;28;20061;-79
2023/03/21 07:21:09;;;;;;;81.55;37.45;;;;;;;15.60;62.56;97166.38;5034336;28;20063;-81
2023/03/21 07:23:34;;;;;;;39.38;20.02;;;;;;;15.51;62.71;97169.88;5050834;28;20483;-80
2023/03/21 07:26:01;;;;;;;33.33;17.98;;;;;;;15.85;61.50;97167.75;5034398;28;20065;-79
2023/03/21 07:28:27;;;;;;;36.25;17.73;;;;;;;16.16;60.08;97169.41;5050948;28;20121;-80
2023/03/21 07:30:58;;;;;;;36.60;17.75;;;;;;;16.41;59.38;97170.72;5050707;28;20075;-79
2023/03/21 07:33:24;;;;;;;35.40;17.73;;;;;;;16.57;58.55;97154.00;5050587;28;20125;-80
2023/03/21 07:35:51;;;;;;;42.25;19.83;;;;;;;16.43;58.16;97157.09;5050395;28;20035;-79
2023/03/21 07:38:18;;;;;;;64.50;31.60;;;;;;;16.32;63.79;97176.97;5034028;28;20423;-79
2023/03/21 07:40:44;;;;;;;58.92;30.42;;;;;;;15.76;70.92;97190.16;5034405;28;20108;-79
2023/03/21 07:43:10;;;;;;;56.38;29.55;;;;;;;15.76;73.34;97198.25;5050830;28;20518;-80
2023/03/21 07:45:35;;;;;;;59.67;30.63;;;;;;;15.83;73.34;97196.72;5034968;28;20025;-80
2023/03/21 07:48:01;;;;;;;50.97;28.27;;;;;;;16.13;72.02;97180.47;5034226;28;20028;-79
2023/03/21 07:50:26;;;;;;;62.63;28.30;;;;;;;16.08;71.89;97176.50;5051222;28;20120;-81
2023/03/21 07:52:52;;;;;;;54.33;27.17;;;;;;;16.20;70.91;97172.69;5034414;28;20025;-79
2023/03/21 07:55:19;;;;;;;56.25;26.08;;;;;;;15.66;73.39;97184.72;5050378;28;20090;-79
2023/03/21 07:57:45;;;;;;;52.88;29.63;;;;;;;15.64;75.06;97208.28;5033617;28;20025;-78
2023/03/21 08:00:12;;;;;;;56.58;25.77;;;;;;;15.88;73.29;97199.84;5033747;28;20036;-78
2023/03/21 08:02:38;;;;;;;52.97;23.75;;;;;;;15.83;69.27;97171.59;5050046;28;20127;-79
2023/03/21 08:05:04;;;;;;;46.70;24.15;;;;;;;15.52;70.27;97166.22;5049947;28;20120;-80
2023/03/21 08:07:30;;;;;;;86.47;38.75;;;;;;;15.77;72.70;97180.22;5033600;28;20029;-80
2023/03/21 08:09:55;;;;;;;109.90;49.65;;;;;;;16.28;67.50;97180.94;5051851;28;20086;-79
2023/03/21 08:12:21;;;;;;;72.97;37.40;;;;;;;16.62;63.99;97174.19;5038748;28;20021;-81
2023/03/21 08:14:46;;;;;;;43.85;22.65;;;;;;;17.14;60.75;97164.78;5054484;28;20408;-80
2023/03/21 08:17:12;;;;;;;53.88;24.67;;;;;;;17.53;58.68;97170.97;5054590;28;20414;-80
2023/03/21 08:19:37;;;;;;;43.17;24.05;;;;;;;17.85;56.76;97149.78;5037684;28;20075;-79
2023/03/21 08:22:05;;;;;;;51.95;27.70;;;;;;;17.63;56.44;97158.28;5053845;28;20043;-80
2023/03/21 08:24:32;;;;;;;54.60;25.33;;;;;;;17.57;56.82;97158.88;5053701;28;20061;-80
2023/03/21 08:26:59;;;;;;;87.75;47.00;;;;;;;17.79;55.34;97150.38;5037290;28;20427;-80
2023/03/21 08:29:25;;;;;;;43.92;23.02;;;;;;;17.83;54.08;97134.69;5055223;28;20053;-79
2023/03/21 08:31:51;;;;;;;47.05;24.25;;;;;;;17.50;54.80;97128.00;5037323;28;20478;-80
2023/03/21 08:34:18;;;;;;;47.25;24.63;;;;;;;17.66;55.85;97138.19;5053781;28;20059;-79
2023/03/21 08:36:44;;;;;;;40.28;21.75;;;;;;;18.03;54.98;97152.53;5053984;28;20106;-80
2023/03/21 08:39:10;;;;;;;40.72;19.60;;;;;;;18.39;53.41;97145.34;5070363;28;20088;-79
2023/03/21 08:41:36;;;;;;;41.00;20.73;;;;;;;18.58;51.46;97134.38;5053783;28;20029;-79
2023/03/21 08:44:03;;;;;;;34.45;18.13;;;;;;;19.31;50.33;97145.84;5053534;28;20408;-81
2023/03/21 08:46:30;;;;;;;94.03;48.00;;;;;;;19.85;48.00;97126.53;5053501;28;20033;-80
2023/03/21 08:48:55;;;;;;;37.75;24.08;;;;;;;20.53;45.67;97127.28;5070277;28;20033;-79
2023/03/21 08:51:21;;;;;;;31.42;14.20;;;;;;;20.61;44.30;97110.13;5053794;28;20031;-79
2023/03/21 08:53:49;;;;;;;29.45;14.45;;;;;;;19.99;45.70;97106.88;5037535;28;20500;-81
2023/03/21 08:56:15;;;;;;;48.55;24.80;;;;;;;20.98;43.74;97104.19;5036978;28;20108;-80
2023/03/21 08:58:40;;;;;;;21.15;12.55;;;;;;;21.63;42.61;97114.00;5053590;28;20025;-80
2023/03/21 09:01:09;;;;;;;18.58;11.02;;;;;;;21.90;41.44;97099.13;5053459;28;20044;-80
2023/03/21 09:03:38;;;;;;;31.80;12.05;;;;;;;21.93;40.76;97092.53;5053678;28;20025;-80
2023/03/21 09:06:04;;;;;;;24.10;10.73;;;;;;;22.15;40.54;97097.16;5053255;28;20029;-81
2023/03/21 09:08:29;;;;;;;23.52;10.65;;;;;;;22.01;41.24;97100.66;5053262;28;20082;-80
2023/03/21 09:10:56;;;;;;;15.70;9.65;;;;;;;21.70;40.96;97084.22;5036406;28;20056;-79
2023/03/21 09:13:22;;;;;;;18.08;9.82;;;;;;;21.51;40.85;97071.00;5052747;28;20033;-78
2023/03/21 09:15:48;;;;;;;19.60;10.20;;;;;;;21.12;41.75;97073.66;5053063;28;20025;-79
2023/03/21 09:18:20;;;;;;;20.83;10.60;;;;;;;21.34;41.57;97075.66;5052796;28;20056;-79
2023/03/21 09:20:46;;;;;;;17.02;9.07;;;;;;;21.42;42.16;97066.59;5052053;28;20614;-80
2023/03/21 09:23:13;;;;;;;19.40;9.48;;;;;;;21.22;42.12;97066.16;5036121;28;20033;-80
2023/03/21 09:25:40;;;;;;;16.85;8.98;;;;;;;20.86;42.18;97054.75;5069344;28;20128;-79
2023/03/21 09:28:28;;;;;;;17.90;8.95;;;;;;;20.99;42.48;97063.25;5036203;28;20025;-81
2023/03/21 09:30:57;;;;;;;19.83;9.20;;;;;;;21.07;42.20;97051.53;5035992;28;20056;-80
2023/03/21 09:33:24;;;;;;;40.55;11.05;;;;;;;20.98;42.77;97056.09;5069364;28;20036;-79
2023/03/21 09:35:50;;;;;;;18.00;9.73;;;;;;;20.97;42.72;97054.44;5052438;28;20107;-80
2023/03/21 09:38:16;;;;;;;15.23;8.95;;;;;;;20.67;42.85;97043.41;5052884;28;20053;-79
2023/03/21 09:40:51;;;;;;;12.65;7.78;;;;;;;20.78;42.12;97043.03;5052637;28;20020;-81
2023/03/21 09:43:38;;;;;;;13.90;7.95;;;;;;;21.10;41.89;97045.78;5054030;28;20409;-81
2023/03/21 09:46:24;;;;;;;15.88;8.35;;;;;;;20.98;41.97;97038.94;5052750;28;20025;-79
2023/03/21 09:49:08;;;;;;;13.43;8.27;;;;;;;20.49;42.55;97019.09;5052134;28;20151;-81
2023/03/21 09:51:46;;;;;;;15.90;8.38;;;;;;;20.91;42.23;97041.50;5068688;28;20033;-80
2023/03/21 09:54:17;;;;;;;19.73;11.85;;;;;;;20.81;42.58;97029.97;5052313;28;20031;-80
2023/03/21 09:56:44;;;;;;;13.63;8.30;;;;;;;20.12;43.69;97016.81;5052231;28;20431;-78
2023/03/21 09:59:18;;;;;;;14.70;7.47;;;;;;;20.37;44.12;97034.88;5051861;28;20476;-79
2023/03/21 10:01:45;;;;;;;16.55;7.32;;;;;;;20.10;44.77;97035.13;5051931;28;20032;-83
2023/03/21 10:04:14;;;;;;;18.35;5.85;;;;;;;19.66;45.46;97031.78;5051983;28;20071;-83
2023/03/21 10:06:41;;;;;;;15.70;6.93;;;;;;;19.60;46.28;97037.84;5035737;28;20040;-83
2023/03/21 10:09:23;;;;;;;9.77;6.15;;;;;;;19.11;46.57;97030.44;5035359;28;20029;-82
2023/03/21 10:12:00;;;;;;;11.30;7.20;;;;;;;19.12;47.38;97037.59;5051643;28;20031;-81
2023/03/21 10:14:41;;;;;;;13.95;6.13;;;;;;;19.63;46.18;97025.81;5068564;28;20040;-82
2023/03/21 10:17:10;;;;;;;13.70;7.45;;;;;;;19.76;46.30;97027.06;5034961;28;20481;-82
2023/03/21 10:19:35;;;;;;;15.45;7.32;;;;;;;19.74;45.87;97014.69;5051469;28;20085;-82
2023/03/21 10:22:01;;;;;;;7.40;5.13;;;;;;;19.73;46.06;97016.53;5051530;28;20033;-82
2023/03/21 10:24:27;;;;;;;13.30;6.25;;;;;;;19.72;46.26;97014.84;5051354;28;20160;-82
2023/03/21 10:26:53;;;;;;;9.05;4.65;;;;;;;20.10;44.86;97023.41;5034435;28;20120;-82
2023/03/21 10:29:23;;;;;;;9.10;4.53;;;;;;;19.44;46.23;97008.78;5051730;28;20060;-80
2023/03/21 10:31:49;;;;;;;8.13;5.00;;;;;;;19.33;46.60;96991.94;5034386;28;20025;-79
2023/03/21 10:34:27;;;;;;;8.70;5.50;;;;;;;19.95;46.46;97010.50;5051473;28;20033;-81
2023/03/21 10:36:53;;;;;;;9.40;5.03;;;;;;;19.91;45.71;96998.28;5051176;28;20025;-81
2023/03/21 10:39:31;;;;;;;10.93;5.38;;;;;;;20.15;45.71;96999.34;5052263;28;20403;-82
2023/03/21 10:41:57;;;;;;;10.00;4.97;;;;;;;20.36;45.28;96991.59;5051195;28;20024;-81
2023/03/21 10:44:31;;;;;;;15.85;6.30;;;;;;;20.58;45.20;97004.47;5034387;28;20397;-81
2023/03/21 10:47:02;;;;;;;15.45;7.30;;;;;;;20.87;45.06;97006.66;5050849;28;20404;-80
2023/03/21 10:49:30;;;;;;;12.80;7.55;;;;;;;20.83;44.18;96983.56;5051293;28;20047;-81
2023/03/21 10:51:57;;;;;;;11.27;4.95;;;;;;;20.84;44.01;96985.25;5034344;28;20106;-81
2023/03/21 10:54:28;;;;;;;7.53;4.97;;;;;;;20.61;44.14;96984.28;5051142;28;20036;-81
2023/03/21 10:57:07;;;;;;;22.73;8.88;;;;;;;20.96;43.27;96987.44;5051007;28;20031;-79
2023/03/21 10:59:56;;;;;;;21.08;10.55;;;;;;;20.96;43.45;96975.72;5034415;28;20382;-81
2023/03/21 11:02:34;;;;;;;14.63;7.15;;;;;;;21.23;42.37;96974.47;5043023;28;20032;-82
2023/03/21 11:05:06;;;;;;;15.88;6.95;;;;;;;21.33;42.60;96969.69;5033923;28;20025;-82
2023/03/21 11:07:32;;;;;;;18.55;7.95;;;;;;;21.61;42.10;96962.78;5034166;28;20051;-82
2023/03/21 11:10:00;;;;;;;18.50;7.60;;;;;;;22.00;41.30;96955.41;5034087;28;20041;-82
2023/03/21 11:12:37;;;;;;;18.75;7.47;;;;;;;22.10;41.33;96956.03;5067428;28;20028;-81
2023/03/21 11:15:27;;;;;;;20.55;8.73;;;;;;;23.07;40.33;96979.72;5050590;28;20039;-79
2023/03/21 11:17:53;;;;;;;34.00;11.45;;;;;;;23.94;38.77;96997.16;5050477;28;20482;-82
2023/03/21 11:20:19;;;;;;;17.13;8.95;;;;;;;25.08;37.00;96998.97;5050629;28;20067;-82
2023/03/21 11:22:46;;;;;;;20.42;9.50;;;;;;;24.18;37.41;96955.81;5033890;28;20024;-81
2023/03/21 11:25:35;;;;;;;11.25;5.40;;;;;;;23.78;37.72;96955.56;5050133;28;20055;-82
2023/03/21 11:28:06;;;;;;;8.98;5.15;;;;;;;25.63;35.54;96992.63;5050497;28;20035;-82
2023/03/21 11:30:31;;;;;;;8.38;5.15;;;;;;;26.81;33.98;96976.59;5033869;28;20112;-82